x

Shumagin Islands - 85nm South Of Sand Point, Ak (46075) Wave Buoy

5:50 - Mon 30th Mar 2015 All times are UTC.

  • Sig Wave height 8.5ft
  • Peak Period 11s
  • Average Period 6s
  • Wind
    22mph, 27mph gusts
  • Sea Temp 42°f
  • Luft Temp 40°f
  • Sea Pressure 996.8mb

More Historic Weather Station data

Upgrade to MSW Pro to gain access to the past 30 days of data for over 8000 Wavebouys and Weather Stations around the globe.

Join Pro

Comparision Forecast

View Surf forecast
   
Mo 03/30 5:50 8.5ft 11s 6s 22 27 mph 996.8mb 42f 40f
4:50 7ft 6s 6s 20 25 mph 996.1mb 42f 40f
3:50 8ft 11s 6s 20 25 mph 995.6mb 42f 42f
2:50 8ft 11s 6s 20 22 mph 995.1mb 42f 42f
1:50 7.5ft 10s 6s 20 25 mph 994.6mb 42f 42f
12:50 8ft 11s 7s 20 25 mph 994.2mb 42f 42f
So 03/29 11:50 8ft 13s 6s 16 22 mph 993.7mb 42f 42f
10:50 9ft 11s 7s 18 22 mph 993mb 42f 42f
9:50 8ft 10s 6s 20 25 mph 992.5mb 41f 42f
8:50 7.5ft 13s 6s 20 25 mph 991.9mb 41f 42f
7:50 9ft 14s 7s 16 20 mph 991.5mb 41f 41f
6:50 7.5ft 11s 7s 16 20 mph 990.9mb 41f 40f
5:50 9ft 13s 8s 13 16 mph 990.5mb 41f 40f
4:50 8ft 11s 7s 13 18 mph 990.2mb 41f 40f
3:50 7ft 12s 6s 13 18 mph 989.5mb 41f 41f
2:50 7ft 13s 7s 18 20 mph 989mb 41f 41f
1:50 8ft 12s 7s 13 18 mph 988.6mb 41f 41f
12:50 8ft 13s 7s 13 18 mph 988.3mb 41f 41f
11:50 7ft 11s 7s 13 18 mph 988.1mb 41f 42f
10:50 8ft 11s 7s 13 16 mph 987.7mb 41f 41f
9:50 8ft 11s 7s 13 18 mph 987.4mb 41f 41f
8:50 7ft 11s 6s 13 18 mph 987.1mb 41f 41f
7:50 8ft 11s 7s 16 20 mph 986.9mb 41f 40f
6:50 7ft 10s 6s 18 22 mph 986.6mb 41f 40f
5:50 7.5ft 11s 6s 18 22 mph 986.3mb 41f 40f
4:50 8ft 11s 6s 20 25 mph 985.9mb 42f 40f
3:50 8.5ft 10s 7s 16 18 mph 985.4mb 42f 41f
2:50 8ft 11s 7s 16 22 mph 985mb 42f 41f
1:50 8.5ft 11s 8s 16 20 mph 985mb 42f 41f
12:50 9ft 11s 8s 16 20 mph 985mb 42f 41f
Sa 03/28 11:50 9ft 10s 7s 16 20 mph 984.9mb 41f 42f
10:50 9ft 9s 7s 13 18 mph 984.9mb 41f 43f
9:50 9ft 10s 8s 13 16 mph 984.8mb 42f 42f
8:50 10ft 10s 8s 7 9 mph 984.6mb 41f 40f
7:50 9ft 11s 7s 16 20 mph 984mb 41f 40f
6:50 9ft 9s 7s 9 11 mph 983.4mb 41f 42f
5:50 9.5ft 10s 7s 9 11 mph 983mb 41f 41f
4:50 9.5ft 9s 6s 16 18 mph 982.4mb 41f 40f
3:50 10ft 9s 6s 20 25 mph 982.2mb 41f 38f
2:50 9ft 9s 6s 20 25 mph 981.9mb 41f 39f
1:50 8.5ft 9s 6s 18 22 mph 982.1mb 41f 39f
12:50 8ft 8s 6s 18 22 mph 982.3mb 41f 40f
11:50 6ft 7s 5s 16 20 mph 982.5mb 41f 39f
10:50 5.5ft 6s 5s 16 20 mph 982.5mb 42f 39f
9:50 5ft 7s 5s 18 22 mph 982.6mb 42f 39f
8:50 4.5ft 9s 5s 18 22 mph 982.8mb 42f 40f
7:50 4.5ft 6s 5s 18 20 mph 983mb 42f 39f
6:50 4.5ft 8s 5s 20 25 mph 983.1mb 42f 38f
5:50 4.5ft 9s 5s 9 13 mph 983.2mb 42f 38f
4:50 4.5ft 8s 5s 13 18 mph 983.1mb 42f 40f
3:50 4.5ft 7s 5s 4 7 mph 983.2mb 42f 40f
2:50 4.5ft 7s 5s 18 20 mph 983.1mb 42f 39f
1:50 4.5ft 7s 5s 11 13 mph 983.4mb 42f 40f
12:50 4.5ft 7s 5s 11 13 mph 983.8mb 42f 42f
Fr 03/27 11:50 5ft 7s 5s 11 13 mph 984mb 42f 42f
10:50 5ft 7s 5s 11 13 mph 984mb 41f 41f
9:50 5ft 9s 5s 13 16 mph 984mb 41f 41f
8:50 5ft 8s 5s 16 18 mph 983.8mb 41f 38f
7:50 5ft 8s 5s 16 18 mph 983.4mb 41f 39f
6:50 5ft 9s 5s 13 18 mph 983mb 41f 39f
5:50 5ft 7s 5s 13 16 mph 982.8mb 41f 38f
4:50 5.5ft 7s 5s 16 18 mph 982.6mb 41f 38f
3:50 5ft 6s 5s 18 20 mph 982.2mb 41f 38f
2:50 4.5ft 8s 6s 20 22 mph 982.1mb 41f 38f
1:50 4.5ft 8s 6s 4 7 mph 982.4mb 41f 38f
12:50 5ft 7s 6s 4 7 mph 982.4mb 41f 39f
11:50 5ft 8s 6s 4 7 mph 982.8mb 41f 38f
10:50 5ft 9s 6s 13 16 mph 982.8mb 42f 39f
9:50 5ft 8s 6s 11 13 mph 983mb 42f 39f
8:50 5ft 9s 6s 13 16 mph 983.1mb 42f 39f
7:50 5ft 9s 6s 13 16 mph 983.2mb 42f 40f
6:50 5ft 9s 6s 11 13 mph 983mb 42f 39f
5:50 5ft 10s 6s 11 13 mph 982.8mb 42f 39f
4:50 5ft 10s 6s 9 11 mph 982.4mb 42f 40f
3:50 5ft 9s 6s 11 16 mph 982.1mb 42f 40f
2:50 5.5ft 10s 6s 11 13 mph 982.1mb 42f 39f
1:50 5.5ft 10s 6s 11 13 mph 982mb 42f 40f
12:50 6ft 11s 6s 9 11 mph 982.1mb 41f 41f
Do 03/26 11:50 6ft 10s 7s 9 11 mph 982.1mb 41f 40f
10:50 7ft 10s 7s 7 9 mph 982.2mb 41f 40f
9:50 7ft 10s 7s 11 13 mph 982.1mb 41f 40f
8:50 6.5ft 10s 7s 13 16 mph 981.9mb 41f 40f
7:50 7ft 11s 7s 13 16 mph 981.8mb 41f 40f
6:50 8ft 11s 7s 13 18 mph 981.5mb 41f 40f
5:50 7ft 10s 6s 18 20 mph 981.2mb 41f 40f
4:50 8ft 11s 7s 18 22 mph 980.9mb 41f 40f
3:50 7.5ft 11s 6s 16 18 mph 980.7mb 41f 40f
2:50 7.5ft 10s 6s 18 22 mph 980.4mb 41f 41f
1:50 8ft 10s 7s 18 20 mph 980.5mb 41f 40f
12:50 8.5ft 9s 7s 18 20 mph 980.6mb 42f 41f
11:50 8ft 11s 7s 16 20 mph 980.8mb 42f 40f
10:50 8.5ft 11s 6s 16 20 mph 980.7mb 42f 41f
9:50 8.5ft 10s 7s 18 22 mph 980.7mb 42f 41f
8:50 9ft 10s 7s 18 20 mph 980.6mb 42f 41f
7:50 9.5ft 10s 7s 20 22 mph 980.1mb 42f 41f